createdAt,value
2019-03-05T00:00:47.202Z,6.40
2019-03-05T00:01:50.514Z,7.40
2019-03-05T00:02:52.604Z,6.00
2019-03-05T00:03:54.312Z,9.00
2019-03-05T00:04:56.749Z,6.40
2019-03-05T00:05:58.858Z,8.00
2019-03-05T00:07:00.778Z,7.40
2019-03-05T00:08:03.303Z,7.80
2019-03-05T00:09:09.179Z,6.80
2019-03-05T00:10:15.906Z,6.80
2019-03-05T00:11:17.914Z,4.60
2019-03-05T00:12:19.755Z,6.60
2019-03-05T00:13:21.772Z,6.80
2019-03-05T00:14:23.669Z,8.40
2019-03-05T00:15:27.604Z,5.00
2019-03-05T00:16:29.563Z,6.60
2019-03-05T00:17:31.618Z,6.40
2019-03-05T00:18:33.462Z,9.00
2019-03-05T00:19:35.580Z,6.40
2019-03-05T00:20:37.634Z,6.80
2019-03-05T00:21:40.649Z,7.00
2019-03-05T00:22:42.525Z,6.40
2019-03-05T00:23:55.099Z,7.60
2019-03-05T00:25:03.270Z,5.00
2019-03-05T00:26:05.394Z,5.20
2019-03-05T00:27:08.103Z,6.60
2019-03-05T00:28:21.576Z,8.40
2019-03-05T00:29:35.390Z,5.40
2019-03-05T00:30:53.920Z,6.20
2019-03-05T00:31:55.937Z,6.00
2019-03-05T00:33:03.667Z,8.40
2019-03-05T00:34:17.258Z,4.20
2019-03-05T00:35:30.669Z,8.40
2019-03-05T00:36:37.679Z,9.20
2019-03-05T00:37:45.264Z,7.00
2019-03-05T00:39:15.425Z,9.00
2019-03-05T00:40:28.841Z,5.60
2019-03-05T00:41:39.290Z,4.40
2019-03-05T00:43:09.355Z,7.80
2019-03-05T00:44:34.828Z,4.00
2019-03-05T00:45:54.465Z,6.00
2019-03-05T00:47:10.517Z,6.00
2019-03-05T00:48:44.873Z,6.80
2019-03-05T00:50:42.854Z,6.40
2019-03-05T00:51:50.398Z,6.20
2019-03-05T00:53:44.493Z,7.00
2019-03-05T00:55:13.511Z,5.00
2019-03-05T00:56:21.227Z,6.00
2019-03-05T00:57:57.449Z,8.00
2019-03-05T00:59:08.221Z,7.00
2019-03-05T01:00:43.655Z,7.00
2019-03-05T01:02:06.793Z,8.80
2019-03-05T01:03:17.312Z,9.40
2019-03-05T01:04:58.388Z,9.20
2019-03-05T01:06:15.690Z,8.60
2019-03-05T01:07:17.612Z,7.40
2019-03-05T01:08:20.292Z,8.20
2019-03-05T01:09:23.761Z,9.00
2019-03-05T01:10:25.774Z,9.40
2019-03-05T01:11:28.194Z,10.80
2019-03-05T01:12:31.981Z,8.60
2019-03-05T01:13:34.282Z,9.80
2019-03-05T01:14:37.893Z,8.40
2019-03-05T01:15:41.270Z,3.40
2019-03-05T01:16:43.918Z,5.80
2019-03-05T01:17:46.154Z,5.60
2019-03-05T01:18:49.175Z,6.00
2019-03-05T01:19:51.238Z,4.00
2019-03-05T01:20:53.416Z,5.00
2019-03-05T01:21:55.382Z,2.60
2019-03-05T01:22:59.108Z,4.60
2019-03-05T01:24:00.970Z,5.00
2019-03-05T01:25:06.981Z,7.60
2019-03-05T01:26:09.628Z,4.80
2019-03-05T01:27:11.526Z,3.00
2019-03-05T01:28:14.056Z,4.00
2019-03-05T01:29:17.768Z,2.20
2019-03-05T01:30:30.470Z,4.20
2019-03-05T01:31:40.189Z,5.40
2019-03-05T01:32:44.370Z,6.40
2019-03-05T01:33:54.291Z,5.20
2019-03-05T01:34:58.621Z,5.00
2019-03-05T01:36:02.701Z,6.00
2019-03-05T01:37:06.015Z,3.00
2019-03-05T01:38:07.987Z,4.40
2019-03-05T01:39:12.759Z,3.20
2019-03-05T01:40:16.577Z,3.40
2019-03-05T01:41:19.208Z,4.80
2019-03-05T01:42:21.411Z,7.00
2019-03-05T01:43:23.605Z,4.00
2019-03-05T01:44:25.808Z,4.20
2019-03-05T01:45:27.813Z,3.60
2019-03-05T01:46:29.989Z,8.80
2019-03-05T01:47:32.077Z,4.80
2019-03-05T01:48:34.097Z,5.40
2019-03-05T01:49:35.810Z,5.60
2019-03-05T01:50:39.295Z,5.00
2019-03-05T01:51:41.202Z,5.00
2019-03-05T01:52:43.339Z,6.00
2019-03-05T01:53:45.272Z,5.00
2019-03-05T01:54:47.826Z,4.20
2019-03-05T01:55:49.948Z,7.60
2019-03-05T01:56:51.953Z,5.40
2019-03-05T01:57:53.611Z,5.60
2019-03-05T01:58:55.796Z,3.00
2019-03-05T01:59:58.011Z,4.20
2019-03-05T02:01:00.200Z,4.80
2019-03-05T02:02:02.567Z,4.80
2019-03-05T02:03:04.877Z,9.20
2019-03-05T02:04:08.065Z,4.00
2019-03-05T02:05:10.270Z,4.80
2019-03-05T02:06:12.482Z,5.60
2019-03-05T02:07:15.490Z,5.40
2019-03-05T02:08:17.330Z,6.00
2019-03-05T02:09:19.421Z,8.20
2019-03-05T02:10:22.015Z,4.20
2019-03-05T02:11:23.871Z,8.40
2019-03-05T02:12:25.980Z,6.60
2019-03-05T02:13:28.095Z,8.40
2019-03-05T02:14:30.068Z,5.00
2019-03-05T02:15:31.969Z,3.00
2019-03-05T02:16:34.205Z,5.20
2019-03-05T02:17:36.340Z,6.20
2019-03-05T02:18:38.385Z,6.00
2019-03-05T02:19:43.545Z,3.80
2019-03-05T02:20:45.732Z,8.80
2019-03-05T02:21:48.211Z,5.60
2019-03-05T02:23:07.626Z,5.00
2019-03-05T02:24:49.131Z,5.80
2019-03-05T02:26:02.736Z,4.40
2019-03-05T02:27:34.531Z,5.80
2019-03-05T02:28:59.604Z,5.80
2019-03-05T02:30:45.528Z,7.80
2019-03-05T02:32:14.520Z,5.40
2019-03-05T02:33:40.058Z,5.00
2019-03-05T02:35:08.738Z,6.80
2019-03-05T02:36:55.879Z,4.80
2019-03-05T02:38:26.583Z,5.20
2019-03-05T02:39:39.927Z,8.00
2019-03-05T02:40:53.243Z,4.20
2019-03-05T02:42:09.095Z,8.80
2019-03-05T02:43:25.612Z,4.80
2019-03-05T02:45:00.700Z,4.20
2019-03-05T02:46:23.318Z,5.40
2019-03-05T02:48:14.373Z,4.20
2019-03-05T02:49:30.881Z,5.00
2019-03-05T02:51:10.720Z,4.00
2019-03-05T02:52:24.022Z,4.00
2019-03-05T02:53:40.415Z,5.00
2019-03-05T02:55:03.076Z,5.00
2019-03-05T02:56:23.092Z,5.80
2019-03-05T02:57:24.902Z,4.80
2019-03-05T02:58:26.609Z,3.00
2019-03-05T02:59:28.676Z,4.00
2019-03-05T03:00:35.383Z,5.00
2019-03-05T03:01:39.258Z,5.80
2019-03-05T03:02:49.072Z,5.40
2019-03-05T03:03:59.416Z,5.40
2019-03-05T03:05:10.163Z,6.40
2019-03-05T03:06:16.518Z,5.20
2019-03-05T03:07:18.394Z,4.00
2019-03-05T03:08:20.438Z,6.00
2019-03-05T03:09:30.894Z,5.00
2019-03-05T03:10:32.879Z,4.80
2019-03-05T03:11:35.055Z,4.00
2019-03-05T03:12:37.046Z,4.20
2019-03-05T03:13:39.028Z,6.40
2019-03-05T03:14:41.206Z,4.00
2019-03-05T03:15:43.362Z,5.00
2019-03-05T03:16:45.328Z,6.00
2019-03-05T03:17:48.218Z,7.40
2019-03-05T03:18:50.093Z,7.60
2019-03-05T03:19:52.053Z,4.60
2019-03-05T03:20:54.055Z,8.60
2019-03-05T03:21:58.247Z,5.40
2019-03-05T03:23:00.250Z,5.40
2019-03-05T03:24:02.146Z,5.20
2019-03-05T03:25:08.633Z,5.00
2019-03-05T03:26:10.781Z,5.00
2019-03-05T03:27:12.765Z,4.20
2019-03-05T03:28:14.828Z,5.00
2019-03-05T03:29:16.914Z,5.00
2019-03-05T03:30:20.411Z,7.00
2019-03-05T03:31:22.273Z,5.00
2019-03-05T03:32:24.427Z,7.00
2019-03-05T03:33:28.616Z,5.80
2019-03-05T03:34:30.613Z,6.60
2019-03-05T03:35:32.757Z,8.20
2019-03-05T03:36:34.853Z,7.00
2019-03-05T03:37:36.816Z,6.40
2019-03-05T03:38:38.746Z,7.00
2019-03-05T03:39:40.739Z,11.40
2019-03-05T03:40:42.400Z,15.60
2019-03-05T03:41:44.392Z,12.80
2019-03-05T03:42:46.604Z,15.40
2019-03-05T03:43:48.486Z,12.40
2019-03-05T03:44:50.461Z,13.80
2019-03-05T03:45:52.389Z,12.00
2019-03-05T03:46:54.456Z,14.60
2019-03-05T03:47:56.419Z,7.20
2019-03-05T03:48:58.096Z,12.40
2019-03-05T03:50:00.136Z,11.40
2019-03-05T03:51:03.977Z,10.40
2019-03-05T03:52:06.023Z,9.40
2019-03-05T03:53:07.986Z,11.40
2019-03-05T03:54:09.815Z,10.80
2019-03-05T03:55:14.059Z,9.80
2019-03-05T03:56:16.184Z,7.00
2019-03-05T03:57:18.410Z,7.20
2019-03-05T03:58:20.139Z,8.00
2019-03-05T03:59:22.190Z,8.20
2019-03-05T04:00:24.517Z,5.80
2019-03-05T04:01:26.574Z,10.40
2019-03-05T04:02:28.704Z,8.80
2019-03-05T04:03:32.510Z,9.80
2019-03-05T04:04:34.678Z,8.80
2019-03-05T04:05:36.808Z,13.40
2019-03-05T04:06:38.704Z,9.00
2019-03-05T04:07:43.673Z,6.00
2019-03-05T04:08:45.815Z,7.80
2019-03-05T04:09:47.856Z,10.60
2019-03-05T04:10:49.900Z,6.80
2019-03-05T04:11:52.037Z,8.20
2019-03-05T04:12:53.915Z,8.80
2019-03-05T04:13:59.413Z,9.80
2019-03-05T04:14:59.960Z,7.20
2019-03-05T04:16:01.719Z,8.00
2019-03-05T04:17:03.653Z,6.00
2019-03-05T04:18:06.607Z,8.40
2019-03-05T04:19:10.266Z,8.80
2019-03-05T04:20:17.162Z,7.80
2019-03-05T04:21:20.148Z,7.00
2019-03-05T04:22:22.282Z,10.60
2019-03-05T04:23:24.237Z,7.00
2019-03-05T04:24:26.381Z,8.80
2019-03-05T04:25:28.627Z,7.00
2019-03-05T04:26:30.515Z,6.00
2019-03-05T04:27:32.543Z,10.40
2019-03-05T04:28:34.445Z,7.60
2019-03-05T04:29:36.399Z,10.00
2019-03-05T04:30:38.989Z,10.60
2019-03-05T04:31:40.649Z,8.80
2019-03-05T04:32:42.997Z,10.20
2019-03-05T04:33:45.334Z,11.20
2019-03-05T04:34:47.521Z,9.20
2019-03-05T04:35:49.391Z,10.20
2019-03-05T04:36:51.151Z,9.40
2019-03-05T04:37:53.307Z,8.80
2019-03-05T04:38:57.400Z,11.00
2019-03-05T04:39:59.435Z,8.80
2019-03-05T04:41:01.349Z,10.40
2019-03-05T04:42:03.583Z,8.60
2019-03-05T04:43:05.336Z,9.80
2019-03-05T04:44:07.235Z,10.80
2019-03-05T04:45:44.100Z,11.00
2019-03-05T04:46:47.946Z,12.20
2019-03-05T04:47:49.882Z,10.40
2019-03-05T04:48:53.470Z,10.00
2019-03-05T04:50:00.422Z,11.20
2019-03-05T04:51:04.824Z,8.80
2019-03-05T04:52:15.022Z,9.00
2019-03-05T04:53:17.114Z,15.40
2019-03-05T04:54:19.006Z,13.60
2019-03-05T04:55:21.006Z,13.40
2019-03-05T04:56:23.048Z,11.00
2019-03-05T04:57:25.035Z,7.40
2019-03-05T04:58:27.077Z,9.80
2019-03-05T04:59:29.140Z,10.00
2019-03-05T05:00:30.845Z,12.60
2019-03-05T05:01:32.967Z,13.00
2019-03-05T05:02:35.000Z,11.60
2019-03-05T05:03:37.306Z,12.00
2019-03-05T05:04:39.491Z,12.00
2019-03-05T05:05:41.585Z,14.20
2019-03-05T05:06:43.473Z,10.80
2019-03-05T05:07:45.340Z,13.00
2019-03-05T05:08:47.661Z,11.40
2019-03-05T05:09:49.622Z,12.00
2019-03-05T05:10:51.851Z,11.60
2019-03-05T05:11:53.939Z,9.80
2019-03-05T05:12:55.601Z,11.60
2019-03-05T05:13:57.937Z,10.80
2019-03-05T05:14:59.905Z,10.40
2019-03-05T05:16:02.765Z,16.00
2019-03-05T05:17:04.689Z,11.80
2019-03-05T05:18:06.808Z,11.80
2019-03-05T05:19:08.471Z,13.00
2019-03-05T05:20:10.889Z,7.40
2019-03-05T05:21:12.897Z,12.00
2019-03-05T05:22:14.868Z,13.20
2019-03-05T05:23:17.920Z,11.80
2019-03-05T05:24:19.821Z,12.00
2019-03-05T05:25:22.879Z,13.60
2019-03-05T05:26:25.057Z,16.40
2019-03-05T05:27:27.290Z,10.40
2019-03-05T05:28:29.195Z,9.40
2019-03-05T05:29:31.079Z,10.80
2019-03-05T05:30:39.860Z,10.00
2019-03-05T05:31:41.663Z,13.00
2019-03-05T05:32:43.614Z,10.80
2019-03-05T05:33:45.357Z,12.60
2019-03-05T05:34:47.659Z,11.80
2019-03-05T05:35:49.581Z,12.80
2019-03-05T05:36:51.429Z,11.40
2019-03-05T05:37:55.934Z,12.80
2019-03-05T05:38:58.055Z,11.60
2019-03-05T05:40:41.596Z,11.00
2019-03-05T05:41:44.062Z,8.20
2019-03-05T05:42:46.162Z,15.20
2019-03-05T05:43:48.164Z,13.00
2019-03-05T05:44:50.340Z,10.20
2019-03-05T05:45:53.287Z,11.00
2019-03-05T05:46:55.282Z,7.40
2019-03-05T05:47:59.418Z,13.60
2019-03-05T05:49:01.239Z,12.20
2019-03-05T05:50:04.842Z,15.00
2019-03-05T05:51:06.733Z,10.20
2019-03-05T05:52:08.416Z,13.20
2019-03-05T05:53:10.416Z,10.60
2019-03-05T05:54:12.252Z,6.80
2019-03-05T05:55:13.908Z,9.60
2019-03-05T05:56:15.917Z,6.60
2019-03-05T05:57:17.912Z,7.20
2019-03-05T05:58:21.114Z,13.00
2019-03-05T05:59:22.996Z,8.00
2019-03-05T06:00:25.294Z,11.00
2019-03-05T06:01:27.248Z,13.20
2019-03-05T06:02:29.143Z,14.40
2019-03-05T06:03:31.183Z,11.20
2019-03-05T06:04:33.228Z,12.20
2019-03-05T06:05:36.836Z,8.40
2019-03-05T06:06:38.675Z,9.80
2019-03-05T06:07:40.754Z,8.00
2019-03-05T06:08:43.642Z,10.60
2019-03-05T06:09:47.769Z,12.20
2019-03-05T06:10:52.563Z,11.40
2019-03-05T06:11:53.917Z,7.80
2019-03-05T06:12:55.863Z,5.00
2019-03-05T06:13:57.823Z,5.20
2019-03-05T06:14:59.846Z,11.20
2019-03-05T06:16:01.915Z,7.60
2019-03-05T06:17:03.849Z,8.60
2019-03-05T06:18:06.277Z,7.60
2019-03-05T06:19:08.374Z,14.60
2019-03-05T06:20:15.343Z,8.40
2019-03-05T06:21:17.383Z,10.80
2019-03-05T06:22:19.170Z,6.40
2019-03-05T06:23:21.277Z,7.60
2019-03-05T06:24:23.582Z,8.20
2019-03-05T06:25:25.262Z,8.00
2019-03-05T06:26:27.993Z,12.20
2019-03-05T06:27:29.700Z,7.80
2019-03-05T06:28:31.883Z,10.00
2019-03-05T06:29:33.762Z,7.00
2019-03-05T06:30:39.314Z,7.20
2019-03-05T06:31:41.294Z,9.40
2019-03-05T06:32:43.443Z,9.20
2019-03-05T06:33:45.234Z,8.20
2019-03-05T06:34:47.261Z,8.20
2019-03-05T06:35:49.467Z,10.00
2019-03-05T06:36:54.990Z,8.00
2019-03-05T06:37:57.062Z,9.40
2019-03-05T06:38:59.088Z,11.00
2019-03-05T06:40:00.962Z,7.00
2019-03-05T06:41:03.716Z,7.00
2019-03-05T06:42:05.810Z,9.80
2019-03-05T06:43:07.609Z,8.00
2019-03-05T06:44:09.917Z,6.40
2019-03-05T06:45:17.688Z,11.80
2019-03-05T06:46:19.648Z,9.60
2019-03-05T06:47:21.489Z,8.80
2019-03-05T06:48:23.541Z,9.40
2019-03-05T06:49:25.530Z,8.60
2019-03-05T06:50:27.952Z,7.60
2019-03-05T06:51:29.939Z,6.80
2019-03-05T06:52:32.034Z,10.20
2019-03-05T06:53:33.939Z,7.80
2019-03-05T06:54:35.830Z,6.00
2019-03-05T06:55:37.772Z,11.60
2019-03-05T06:56:39.781Z,7.00
2019-03-05T06:57:42.380Z,6.60
2019-03-05T06:58:44.579Z,6.40
2019-03-05T06:59:47.079Z,9.40
2019-03-05T07:00:49.557Z,7.40
2019-03-05T07:01:51.518Z,8.40
2019-03-05T07:02:53.721Z,10.00
2019-03-05T07:03:55.433Z,6.80
2019-03-05T07:04:57.399Z,8.40
2019-03-05T07:06:48.917Z,7.00
2019-03-05T07:07:52.156Z,9.00
2019-03-05T07:09:00.113Z,11.00
2019-03-05T07:10:16.428Z,10.20
2019-03-05T07:11:36.882Z,11.80
2019-03-05T07:12:44.833Z,5.20
2019-03-05T07:13:49.199Z,10.60
2019-03-05T07:15:30.762Z,10.60
2019-03-05T07:16:41.651Z,9.60
2019-03-05T07:18:06.188Z,9.40
2019-03-05T07:19:08.378Z,10.00
2019-03-05T07:20:57.082Z,9.00
2019-03-05T07:22:28.530Z,10.40
2019-03-05T07:24:15.668Z,14.40
2019-03-05T07:25:17.698Z,9.40
2019-03-05T07:26:19.974Z,10.20
2019-03-05T07:27:25.528Z,8.80
2019-03-05T07:28:29.550Z,10.20
2019-03-05T07:29:31.425Z,13.80
2019-03-05T07:30:33.341Z,10.80
2019-03-05T07:31:35.228Z,9.60
2019-03-05T07:32:37.292Z,8.20
2019-03-05T07:33:39.078Z,8.80
2019-03-05T07:34:43.018Z,10.00
2019-03-05T07:35:45.296Z,8.20
2019-03-05T07:36:47.531Z,8.40
2019-03-05T07:37:50.082Z,9.40
2019-03-05T07:38:53.598Z,10.40
2019-03-05T07:39:55.484Z,12.60
2019-03-05T07:40:57.520Z,13.00
2019-03-05T07:41:59.823Z,13.80
2019-03-05T07:43:01.575Z,13.80
2019-03-05T07:44:03.882Z,8.40
2019-03-05T07:45:09.140Z,13.80
2019-03-05T07:46:11.034Z,9.20
2019-03-05T07:47:13.092Z,7.40
2019-03-05T07:48:14.964Z,8.00
2019-03-05T07:49:17.061Z,9.20
2019-03-05T07:50:20.139Z,8.00
2019-03-05T07:51:21.861Z,9.00
2019-03-05T07:52:23.958Z,8.80
2019-03-05T07:53:26.058Z,10.00
2019-03-05T07:54:28.192Z,8.80
2019-03-05T07:55:30.227Z,8.20
2019-03-05T07:56:32.427Z,8.20
2019-03-05T07:57:34.316Z,8.00
2019-03-05T07:58:36.317Z,10.00
2019-03-05T07:59:38.405Z,8.00
2019-03-05T08:00:40.381Z,9.80
2019-03-05T08:01:42.433Z,7.20
2019-03-05T08:02:44.630Z,9.00
2019-03-05T08:03:46.335Z,9.40
2019-03-05T08:04:48.363Z,8.00
2019-03-05T08:05:50.558Z,9.20
2019-03-05T08:06:52.229Z,11.00
2019-03-05T08:07:54.454Z,8.40
2019-03-05T08:09:35.662Z,7.00
2019-03-05T08:10:37.905Z,8.20
2019-03-05T08:11:40.097Z,7.60
2019-03-05T08:13:09.027Z,9.20
2019-03-05T08:14:25.675Z,6.80
2019-03-05T08:15:37.863Z,6.00
2019-03-05T08:16:40.012Z,7.20
2019-03-05T08:17:42.175Z,8.00
2019-03-05T08:18:44.421Z,6.00
2019-03-05T08:19:46.626Z,8.20
2019-03-05T08:20:48.492Z,7.40
2019-03-05T08:21:50.804Z,7.20
2019-03-05T08:22:53.432Z,8.60
2019-03-05T08:23:55.438Z,7.00
2019-03-05T08:24:59.516Z,12.80
2019-03-05T08:26:02.038Z,6.80
2019-03-05T08:27:04.133Z,7.80
2019-03-05T08:28:06.328Z,12.00
2019-03-05T08:29:08.230Z,9.60
2019-03-05T08:30:15.052Z,8.60
2019-03-05T08:31:16.858Z,8.20
2019-03-05T08:32:18.836Z,9.20
2019-03-05T08:33:20.753Z,8.40
2019-03-05T08:34:22.817Z,8.60
2019-03-05T08:35:24.734Z,10.80
2019-03-05T08:36:28.154Z,6.80
2019-03-05T08:37:30.050Z,6.60
2019-03-05T08:38:32.432Z,7.80
2019-03-05T08:39:34.590Z,7.60
2019-03-05T08:40:38.055Z,13.60
2019-03-05T08:41:39.885Z,8.20
2019-03-05T08:42:41.947Z,11.00
2019-03-05T08:43:44.159Z,11.60
2019-03-05T08:44:50.512Z,6.40
2019-03-05T08:45:51.227Z,8.00
2019-03-05T08:46:53.630Z,7.60
2019-03-05T08:47:55.979Z,8.20
2019-03-05T08:48:57.662Z,9.20
2019-03-05T08:49:59.641Z,9.00
2019-03-05T08:51:02.493Z,10.80
2019-03-05T08:52:04.787Z,8.60
2019-03-05T08:53:06.845Z,9.00
2019-03-05T08:54:08.704Z,13.40
2019-03-05T08:55:11.677Z,9.20
2019-03-05T08:56:13.866Z,10.00
2019-03-05T08:57:15.873Z,10.20
2019-03-05T08:58:17.527Z,9.40
2019-03-05T08:59:19.728Z,7.40
2019-03-05T09:00:21.965Z,6.80
2019-03-05T09:01:25.233Z,7.60
2019-03-05T09:02:27.223Z,7.00
2019-03-05T09:03:29.526Z,7.00
2019-03-05T09:04:31.543Z,7.00
2019-03-05T09:05:33.909Z,9.20
2019-03-05T09:06:36.011Z,6.00
2019-03-05T09:07:38.108Z,7.20
2019-03-05T09:08:40.015Z,6.60
2019-03-05T09:09:42.515Z,6.60
2019-03-05T09:10:45.059Z,5.80
2019-03-05T09:11:47.304Z,7.20
2019-03-05T09:12:49.319Z,5.60
2019-03-05T09:13:51.302Z,9.60
2019-03-05T09:14:53.555Z,8.40
2019-03-05T09:15:55.714Z,7.40
2019-03-05T09:16:57.818Z,8.80
2019-03-05T09:17:59.862Z,8.60
2019-03-05T09:19:03.551Z,13.60
2019-03-05T09:20:10.919Z,6.00
2019-03-05T09:21:13.138Z,7.00
2019-03-05T09:22:14.917Z,8.40
2019-03-05T09:23:16.768Z,6.60
2019-03-05T09:24:20.240Z,10.40
2019-03-05T09:25:22.927Z,5.80
2019-03-05T09:26:26.283Z,6.80
2019-03-05T09:27:28.610Z,5.00
2019-03-05T09:28:30.888Z,5.80
2019-03-05T09:29:33.074Z,6.00
2019-03-05T09:30:35.376Z,5.60
2019-03-05T09:31:37.474Z,5.80
2019-03-05T09:32:39.593Z,6.00
2019-03-05T09:33:42.968Z,5.80
2019-03-05T09:34:45.401Z,7.00
2019-03-05T09:35:47.441Z,6.20
2019-03-05T09:36:51.301Z,5.60
2019-03-05T09:37:53.282Z,6.40
2019-03-05T09:38:55.586Z,10.00
2019-03-05T09:39:57.660Z,7.40
2019-03-05T09:40:59.859Z,6.20
2019-03-05T09:42:03.511Z,5.80
2019-03-05T09:43:05.930Z,8.00
2019-03-05T09:44:08.292Z,8.20
2019-03-05T09:45:14.086Z,7.00
2019-03-05T09:46:16.084Z,8.40
2019-03-05T09:47:18.399Z,5.40
2019-03-05T09:48:20.243Z,6.80
2019-03-05T09:49:22.227Z,5.20
2019-03-05T09:50:24.483Z,6.40
2019-03-05T09:51:26.859Z,5.00
2019-03-05T09:52:28.607Z,5.00
2019-03-05T09:53:30.868Z,5.20
2019-03-05T09:54:32.906Z,9.60
2019-03-05T09:55:34.686Z,8.80
2019-03-05T09:56:36.706Z,8.00
2019-03-05T09:57:39.312Z,5.20
2019-03-05T09:58:43.342Z,7.40
2019-03-05T09:59:45.239Z,9.00
2019-03-05T10:00:47.102Z,10.20
2019-03-05T10:01:50.845Z,7.20
2019-03-05T10:02:53.234Z,6.40
2019-03-05T10:03:54.914Z,7.00
2019-03-05T10:04:56.970Z,7.00
2019-03-05T10:05:59.251Z,6.40
2019-03-05T10:07:01.169Z,7.20
2019-03-05T10:08:03.808Z,6.80
2019-03-05T10:09:07.124Z,8.40
2019-03-05T10:10:16.215Z,10.00
2019-03-05T10:11:18.370Z,12.00
2019-03-05T10:12:20.846Z,10.60
2019-03-05T10:13:22.824Z,13.00
2019-03-05T10:14:24.964Z,9.40
2019-03-05T10:15:27.480Z,7.20
2019-03-05T10:16:29.617Z,9.00
2019-03-05T10:17:37.781Z,6.00
2019-03-05T10:18:35.879Z,7.00
2019-03-05T10:19:38.871Z,7.00
2019-03-05T10:20:41.259Z,9.60
2019-03-05T10:21:46.483Z,10.80
2019-03-05T10:22:47.772Z,6.40
2019-03-05T10:23:51.089Z,6.00
2019-03-05T10:24:53.596Z,7.20
2019-03-05T10:25:55.652Z,8.00
2019-03-05T10:26:57.634Z,8.80
2019-03-05T10:28:00.802Z,7.20
2019-03-05T10:29:05.343Z,9.20
2019-03-05T10:30:24.742Z,6.80
2019-03-05T10:31:21.396Z,9.00
2019-03-05T10:32:23.659Z,7.20
2019-03-05T10:33:25.522Z,5.80
2019-03-05T10:34:27.726Z,5.60
2019-03-05T10:35:30.238Z,8.20
2019-03-05T10:36:32.422Z,5.80
2019-03-05T10:37:34.416Z,6.60
2019-03-05T10:38:37.813Z,6.20
2019-03-05T10:39:39.847Z,7.40
2019-03-05T10:40:45.522Z,8.40
2019-03-05T10:41:47.663Z,10.20
2019-03-05T10:42:49.995Z,8.20
2019-03-05T10:43:52.079Z,5.80
2019-03-05T10:44:56.003Z,8.20
2019-03-05T10:45:58.323Z,5.80
2019-03-05T10:47:00.787Z,7.40
2019-03-05T10:48:05.013Z,6.60
2019-03-05T10:49:07.003Z,8.40
2019-03-05T10:50:17.213Z,8.80
2019-03-05T10:51:19.248Z,7.80
2019-03-05T10:52:21.240Z,6.80
2019-03-05T10:53:23.521Z,9.20
2019-03-05T10:54:25.676Z,12.80
2019-03-05T10:55:27.960Z,9.20
2019-03-05T10:56:30.125Z,8.40
2019-03-05T10:57:33.130Z,8.80
2019-03-05T10:58:35.057Z,9.20
2019-03-05T10:59:37.048Z,8.20
2019-03-05T11:00:45.552Z,8.00
2019-03-05T11:01:47.689Z,9.40
2019-03-05T11:02:50.359Z,10.00
2019-03-05T11:03:52.558Z,9.60
2019-03-05T11:04:54.533Z,14.60
2019-03-05T11:05:56.638Z,8.20
2019-03-05T11:06:58.949Z,13.00
2019-03-05T11:08:01.824Z,9.80
2019-03-05T11:09:05.629Z,12.00
2019-03-05T11:10:11.216Z,11.80
2019-03-05T11:11:14.136Z,8.60
2019-03-05T11:12:16.714Z,10.00
2019-03-05T11:13:18.866Z,11.40
2019-03-05T11:14:20.917Z,11.60
2019-03-05T11:15:29.597Z,9.20
2019-03-05T11:16:31.609Z,12.20
2019-03-05T11:17:35.212Z,9.20
2019-03-05T11:18:37.508Z,10.80
2019-03-05T11:19:39.711Z,10.20
2019-03-05T11:20:41.950Z,10.20
2019-03-05T11:21:43.975Z,8.40
2019-03-05T11:22:47.476Z,8.80
2019-03-05T11:23:49.871Z,10.80
2019-03-05T11:24:52.095Z,11.00
2019-03-05T11:25:53.963Z,2.60
2019-03-05T11:26:55.975Z,3.00
2019-03-05T11:27:57.862Z,2.40
2019-03-05T11:28:59.738Z,6.00
2019-03-05T11:30:01.689Z,6.20
2019-03-05T11:31:04.809Z,4.00
2019-03-05T11:32:07.121Z,8.60
2019-03-05T11:33:09.681Z,11.20
2019-03-05T11:34:13.259Z,10.40
2019-03-05T11:35:19.014Z,14.20
2019-03-05T11:36:20.955Z,8.00
2019-03-05T11:37:23.332Z,8.00
2019-03-05T11:38:25.695Z,7.80
2019-03-05T11:39:29.909Z,9.80
2019-03-05T11:40:32.284Z,7.00
2019-03-05T11:41:35.560Z,7.20
2019-03-05T11:42:37.929Z,10.00
2019-03-05T11:43:40.912Z,8.80
2019-03-05T11:44:42.861Z,10.00
2019-03-05T11:45:45.376Z,9.20
2019-03-05T11:46:49.279Z,7.20
2019-03-05T11:47:51.583Z,8.80
2019-03-05T11:48:53.394Z,7.40
2019-03-05T11:49:55.361Z,10.80
2019-03-05T11:50:57.330Z,7.60
2019-03-05T11:51:59.103Z,7.20
2019-03-05T11:53:01.505Z,8.60
2019-03-05T11:54:03.756Z,10.00
2019-03-05T11:55:16.834Z,9.80
2019-03-05T11:56:18.702Z,8.60
2019-03-05T11:57:20.593Z,7.00
2019-03-05T11:58:22.706Z,9.40
2019-03-05T11:59:24.798Z,7.40
2019-03-05T12:00:47.433Z,8.00
2019-03-05T12:01:50.839Z,9.80
2019-03-05T12:02:53.714Z,5.80
2019-03-05T12:03:55.597Z,7.60
2019-03-05T12:04:57.676Z,5.00
2019-03-05T12:06:00.359Z,5.80
2019-03-05T12:07:03.570Z,5.60
2019-03-05T12:08:06.031Z,5.00
2019-03-05T12:09:08.120Z,6.00
2019-03-05T12:10:21.093Z,8.40
2019-03-05T12:11:23.378Z,5.80
2019-03-05T12:12:25.048Z,6.80
2019-03-05T12:13:27.672Z,5.00
2019-03-05T12:14:29.796Z,6.00
2019-03-05T12:15:35.319Z,11.20
2019-03-05T12:16:41.517Z,6.80
2019-03-05T12:17:42.877Z,6.80
2019-03-05T12:18:45.669Z,7.20
2019-03-05T12:19:47.696Z,6.80
2019-03-05T12:20:49.670Z,7.20
2019-03-05T12:21:51.349Z,6.60
2019-03-05T12:22:53.339Z,6.00
2019-03-05T12:23:55.358Z,5.40
2019-03-05T12:24:57.627Z,8.60
2019-03-05T12:26:01.206Z,5.80
2019-03-05T12:27:04.007Z,6.00
2019-03-05T12:28:10.371Z,3.80
2019-03-05T12:29:11.365Z,8.20
2019-03-05T12:30:28.394Z,8.00
2019-03-05T12:31:30.453Z,7.60
2019-03-05T12:32:32.398Z,6.00
2019-03-05T12:33:34.273Z,6.40
2019-03-05T12:34:36.079Z,6.00
2019-03-05T12:35:37.930Z,6.20
2019-03-05T12:36:40.039Z,7.00
2019-03-05T12:37:42.013Z,6.60
2019-03-05T12:38:46.145Z,8.40
2019-03-05T12:39:47.685Z,8.00
2019-03-05T12:40:49.550Z,8.60
2019-03-05T12:41:53.376Z,7.00
2019-03-05T12:42:55.603Z,7.40
2019-03-05T12:43:57.819Z,11.60
2019-03-05T12:45:00.001Z,9.00
2019-03-05T12:46:02.013Z,7.00
2019-03-05T12:47:04.971Z,8.00
2019-03-05T12:48:07.109Z,5.00
2019-03-05T12:49:09.199Z,6.60
2019-03-05T12:50:24.746Z,8.60
2019-03-05T12:51:27.042Z,6.80
2019-03-05T12:52:29.036Z,8.80
2019-03-05T12:53:31.012Z,10.80
2019-03-05T12:54:34.376Z,6.60
2019-03-05T12:55:38.013Z,4.00
2019-03-05T12:56:40.195Z,6.00
2019-03-05T12:57:42.489Z,6.00
2019-03-05T12:58:44.728Z,5.20
2019-03-05T12:59:47.049Z,5.80
2019-03-05T13:00:50.306Z,5.00
2019-03-05T13:01:54.886Z,7.20
2019-03-05T13:02:57.235Z,6.20
2019-03-05T13:03:59.351Z,5.00
2019-03-05T13:05:01.458Z,7.40
2019-03-05T13:06:04.307Z,9.80
2019-03-05T13:07:07.736Z,10.00
2019-03-05T13:08:10.286Z,7.80
2019-03-05T13:09:17.863Z,9.40
2019-03-05T13:10:35.262Z,9.40
2019-03-05T13:11:32.604Z,10.20
2019-03-05T13:12:35.938Z,6.00
2019-03-05T13:13:38.412Z,6.20
2019-03-05T13:14:42.667Z,7.60
2019-03-05T13:15:44.234Z,6.60
2019-03-05T13:16:47.733Z,6.40
2019-03-05T13:17:51.498Z,6.20
2019-03-05T13:18:53.648Z,6.80
2019-03-05T13:19:55.638Z,7.00
2019-03-05T13:20:57.627Z,5.00
2019-03-05T13:21:59.476Z,3.00
2019-03-05T13:23:08.470Z,7.80
2019-03-05T13:24:10.023Z,10.20
2019-03-05T13:25:17.035Z,7.00
2019-03-05T13:26:19.001Z,7.60
2019-03-05T13:27:22.737Z,6.80
2019-03-05T13:28:24.981Z,8.80
2019-03-05T13:29:27.225Z,10.20
2019-03-05T13:30:32.048Z,5.80
2019-03-05T13:31:34.081Z,5.20
2019-03-05T13:32:36.151Z,6.60
2019-03-05T13:33:41.887Z,7.00
2019-03-05T13:34:41.966Z,5.60
2019-03-05T13:35:43.982Z,6.00
2019-03-05T13:36:46.932Z,4.20
2019-03-05T13:38:09.471Z,4.00
2019-03-05T13:39:18.085Z,5.80
2019-03-05T13:40:29.992Z,6.60
2019-03-05T13:41:32.457Z,6.20
2019-03-05T13:42:34.930Z,4.20
2019-03-05T13:43:36.979Z,4.20
2019-03-05T13:44:39.381Z,6.60
2019-03-05T13:45:49.193Z,6.60
2019-03-05T13:46:45.605Z,5.60
2019-03-05T13:47:58.777Z,5.60
2019-03-05T13:49:18.064Z,5.60
2019-03-05T13:50:52.017Z,5.40
2019-03-05T13:52:15.382Z,5.60
2019-03-05T13:54:00.425Z,6.40
2019-03-05T13:55:08.182Z,5.60
2019-03-05T13:56:52.283Z,5.20
2019-03-05T13:58:28.700Z,5.00
2019-03-05T13:59:47.154Z,5.00
2019-03-05T14:00:50.855Z,7.20
2019-03-05T14:01:53.172Z,7.40
2019-03-05T14:03:05.466Z,7.80
2019-03-05T14:04:13.313Z,9.20
2019-03-05T14:05:24.139Z,5.40
2019-03-05T14:06:34.789Z,3.60
2019-03-05T14:08:01.759Z,3.00
2019-03-05T14:09:12.736Z,3.60
2019-03-05T14:10:15.225Z,4.00
2019-03-05T14:11:17.252Z,4.20
2019-03-05T14:12:19.704Z,5.80
2019-03-05T14:13:23.613Z,8.20
2019-03-05T14:14:26.489Z,5.20
2019-03-05T14:15:28.694Z,5.40
2019-03-05T14:16:30.705Z,4.40
2019-03-05T14:17:33.868Z,3.80
2019-03-05T14:18:35.868Z,4.20
2019-03-05T14:19:38.050Z,8.60
2019-03-05T14:20:40.191Z,10.00